Time;durP1;ratioP1;P1;durP2;ratioP2;P2;SDS_P1;SDS_P2;PMS_P1;PMS_P2;Temp;Humidity;BMP_temperature;BMP_pressure;BME280_temperature;BME280_humidity;BME280_pressure;Samples;Min_cycle;Max_cycle;Signal;HPM_P1;HPM_P2
2022/12/27 00:00:05;;;;;;;102.75;62.22;;;;;;;0.38;100.00;93874.28;5090045;28;20052;-70
2022/12/27 00:02:32;;;;;;;88.97;54.35;;;;;;;0.41;100.00;93882.56;5090226;28;20044;-70
2022/12/27 00:05:00;;;;;;;87.55;52.28;;;;;;;0.39;100.00;93887.75;5089958;28;20055;-70
2022/12/27 00:07:28;;;;;;;92.07;57.08;;;;;;;0.28;100.00;93887.84;5089900;28;20109;-70
2022/12/27 00:09:55;;;;;;;104.57;64.45;;;;;;;0.23;100.00;93890.78;5089817;28;20048;-70
2022/12/27 00:12:21;;;;;;;102.93;62.53;;;;;;;0.16;100.00;93892.19;5089941;28;20047;-70
2022/12/27 00:14:48;;;;;;;103.63;60.58;;;;;;;0.16;100.00;93885.44;5089169;28;20570;-70
2022/12/27 00:17:15;;;;;;;100.32;59.03;;;;;;;0.24;100.00;93874.69;5089823;28;20048;-70
2022/12/27 00:19:41;;;;;;;99.18;62.00;;;;;;;0.35;100.00;93878.81;5089580;28;20044;-71
2022/12/27 00:22:08;;;;;;;101.28;65.63;;;;;;;0.38;100.00;93881.09;5089643;28;20048;-71
2022/12/27 00:24:36;;;;;;;100.60;65.05;;;;;;;0.53;100.00;93868.88;5089098;28;20090;-70
2022/12/27 00:27:03;;;;;;;103.13;64.53;;;;;;;0.51;100.00;93868.22;5089372;28;20093;-70
2022/12/27 00:29:30;;;;;;;101.65;61.78;;;;;;;0.48;100.00;93863.41;5089753;28;20048;-70
2022/12/27 00:31:56;;;;;;;105.50;63.28;;;;;;;0.52;100.00;93875.66;5089345;28;20044;-70
2022/12/27 00:34:23;;;;;;;99.55;58.90;;;;;;;0.56;100.00;93876.22;5089702;28;20048;-70
2022/12/27 00:36:51;;;;;;;86.72;53.10;;;;;;;0.52;100.00;93862.22;5089025;28;20051;-70
2022/12/27 00:39:18;;;;;;;91.25;53.42;;;;;;;0.60;100.00;93869.16;5089559;28;20094;-70
2022/12/27 00:41:46;;;;;;;94.72;54.70;;;;;;;0.32;100.00;93831.84;5076120;28;20048;-70
2022/12/27 00:44:12;;;;;;;89.97;54.85;;;;;;;0.60;100.00;93861.56;5089192;28;20446;-70
2022/12/27 00:46:39;;;;;;;94.32;57.53;;;;;;;0.41;100.00;93869.94;5089160;28;20044;-70
2022/12/27 00:49:06;;;;;;;95.40;59.35;;;;;;;0.38;100.00;93876.03;5089162;28;20048;-70
2022/12/27 00:51:33;;;;;;;90.43;55.20;;;;;;;0.42;100.00;93879.91;5089316;28;20435;-70
2022/12/27 00:53:59;;;;;;;99.70;57.72;;;;;;;0.50;100.00;93886.81;5089003;28;20052;-71
2022/12/27 00:56:28;;;;;;;99.05;57.10;;;;;;;0.53;100.00;93869.69;5089256;28;20056;-71
2022/12/27 00:58:58;;;;;;;88.25;51.83;;;;;;;0.45;100.00;93891.47;5089121;28;20044;-70
2022/12/27 01:01:26;;;;;;;87.40;53.35;;;;;;;0.30;100.00;93875.88;5089290;28;20450;-70
2022/12/27 01:03:54;;;;;;;81.47;52.45;;;;;;;0.45;100.00;93882.16;5088899;28;20040;-74
2022/12/27 01:06:22;;;;;;;83.43;50.95;;;;;;;0.43;100.00;93873.94;5076860;28;20048;-71
2022/12/27 01:08:50;;;;;;;83.43;46.25;;;;;;;0.53;100.00;93874.75;5068050;28;20082;-71
2022/12/27 01:11:18;;;;;;;78.55;47.35;;;;;;;0.64;100.00;93865.41;5068441;28;20048;-71
2022/12/27 01:13:46;;;;;;;69.18;40.58;;;;;;;0.63;100.00;93868.88;5068423;28;20117;-70
2022/12/27 01:16:16;;;;;;;61.78;39.63;;;;;;;-0.04;100.00;93751.50;5069150;28;20048;-72
2022/12/27 01:18:42;;;;;;;64.00;39.53;;;;;;;0.77;100.00;93860.09;5071993;28;20048;-72
2022/12/27 01:21:11;;;;;;;63.65;38.03;;;;;;;0.66;100.00;93866.88;5071923;28;20102;-72
2022/12/27 01:23:39;;;;;;;63.78;39.55;;;;;;;0.36;100.00;93862.72;5072098;28;20594;-73
2022/12/27 01:26:07;;;;;;;63.30;40.78;;;;;;;0.37;100.00;93849.19;5072305;28;20102;-72
2022/12/27 01:28:35;;;;;;;69.80;43.95;;;;;;;0.19;100.00;93862.41;5071908;28;20501;-72
2022/12/27 01:31:05;;;;;;;85.15;50.92;;;;;;;0.12;100.00;93861.34;5071883;28;20086;-72
2022/12/27 01:33:33;;;;;;;85.78;52.95;;;;;;;-0.06;100.00;93867.03;5071904;28;20078;-72
2022/12/27 01:36:08;;;;;;;81.43;51.53;;;;;;;-0.29;100.00;93849.53;5071798;28;20094;-72
2022/12/27 01:38:35;;;;;;;85.47;52.80;;;;;;;-0.30;100.00;93869.84;5071969;28;20051;-72
2022/12/27 01:42:50;;;;;;;94.03;55.67;;;;;;;-0.35;100.00;93866.91;5071945;28;20347;-72
2022/12/27 01:43:48;;;;;;;90.93;55.78;;;;;;;-0.31;100.00;93860.69;5071376;28;20047;-71
2022/12/27 01:46:15;;;;;;;85.65;52.83;;;;;;;-0.37;100.00;93858.66;5071971;28;20488;-71
2022/12/27 01:48:44;;;;;;;85.00;51.83;;;;;;;-0.47;100.00;93858.63;5071757;28;20090;-72
2022/12/27 01:51:11;;;;;;;76.18;47.28;;;;;;;-0.36;100.00;93856.03;5073317;28;20102;-72
2022/12/27 01:53:42;;;;;;;68.38;44.35;;;;;;;-0.24;100.00;93856.72;5071431;28;20497;-72
2022/12/27 01:56:12;;;;;;;67.15;41.92;;;;;;;-0.13;100.00;93848.25;5071483;28;20114;-72
2022/12/27 01:58:44;;;;;;;81.15;52.15;;;;;;;-0.04;100.00;93855.06;5071461;28;20102;-72
2022/12/27 02:01:14;;;;;;;87.07;54.38;;;;;;;-0.09;100.00;93854.63;5071606;28;20424;-72
2022/12/27 02:03:46;;;;;;;82.22;51.05;;;;;;;-0.14;100.00;93849.97;5071175;28;20044;-72
2022/12/27 02:06:14;;;;;;;77.78;49.45;;;;;;;-0.19;100.00;93862.19;5071314;28;20448;-72
2022/12/27 02:08:48;;;;;;;81.05;49.60;;;;;;;-0.15;100.00;93855.97;5071369;28;20052;-72
2022/12/27 02:11:16;;;;;;;81.50;51.08;;;;;;;-0.06;100.00;93851.06;5071422;28;20420;-72
2022/12/27 02:13:45;;;;;;;89.78;56.40;;;;;;;-0.01;100.00;93854.00;5073805;28;20082;-72
2022/12/27 02:16:14;;;;;;;79.20;51.20;;;;;;;0.07;100.00;93854.16;5071649;28;20448;-71
2022/12/27 02:18:41;;;;;;;77.93;49.83;;;;;;;0.03;100.00;93857.88;5070957;28;20500;-72
2022/12/27 02:21:31;;;;;;;80.10;50.67;;;;;;;0.11;100.00;93847.13;5071115;28;20052;-72
2022/12/27 02:24:14;;;;;;;79.30;48.70;;;;;;;0.23;100.00;93847.81;5071269;28;20044;-72
2022/12/27 02:26:52;;;;;;;88.53;54.97;;;;;;;0.16;100.00;93827.31;5070726;28;20049;-72
2022/12/27 02:29:30;;;;;;;75.38;50.92;;;;;;;0.19;100.00;93843.94;5071048;28;20048;-72
2022/12/27 02:32:03;;;;;;;83.47;49.83;;;;;;;0.09;100.00;93844.72;5071266;28;20079;-72
2022/12/27 02:34:35;;;;;;;78.45;52.03;;;;;;;0.05;100.00;93842.59;5070846;28;20041;-72
2022/12/27 02:37:06;;;;;;;88.65;58.97;;;;;;;0.05;100.00;93840.06;5070876;28;20048;-71
2022/12/27 02:39:36;;;;;;;88.95;57.50;;;;;;;0.15;100.00;93845.13;5070671;28;20049;-71
2022/12/27 02:53:14;;;;;;;151.93;86.07;;;;;;;-0.12;100.00;93849.03;5070533;28;20048;-70
2022/12/27 02:58:56;;;;;;;96.68;61.40;;;;;;;-0.15;100.00;93842.53;5070263;28;20079;-69
2022/12/27 03:04:42;;;;;;;82.60;52.45;;;;;;;0.06;100.00;93846.72;5070214;28;20075;-70
2022/12/27 03:07:25;;;;;;;80.90;50.42;;;;;;;-0.13;100.00;93850.78;5070238;28;20057;-70
2022/12/27 03:16:01;;;;;;;82.38;47.30;;;;;;;-0.45;100.00;93855.06;5069957;28;20109;-70
2022/12/27 03:19:07;;;;;;;70.55;42.65;;;;;;;-0.34;100.00;93855.88;5069975;28;20055;-70
2022/12/27 03:27:17;;;;;;;71.20;42.30;;;;;;;-0.26;100.00;93861.09;5069756;28;20055;-70
2022/12/27 03:35:24;;;;;;;69.28;45.72;;;;;;;-0.18;100.00;93856.19;5069628;28;20112;-70
2022/12/27 03:38:02;;;;;;;75.32;48.00;;;;;;;-0.36;100.00;93865.31;5069458;28;20109;-70
2022/12/27 03:43:28;;;;;;;76.50;45.80;;;;;;;-0.69;100.00;93863.69;5068422;28;20423;-69
2022/12/27 03:48:57;;;;;;;72.25;45.70;;;;;;;-0.72;100.00;93860.63;5069185;28;20076;-70
2022/12/27 03:51:27;;;;;;;87.57;56.33;;;;;;;-0.76;100.00;93844.94;5070491;28;20040;-70
2022/12/27 03:54:00;;;;;;;72.40;46.08;;;;;;;-0.68;100.00;93850.13;5069392;28;20044;-70
2022/12/27 03:56:28;;;;;;;87.50;58.25;;;;;;;-0.52;100.00;93848.09;5068844;28;20048;-70
2022/12/27 03:58:58;;;;;;;87.97;59.50;;;;;;;-0.45;100.00;93860.09;5068960;28;20048;-70
2022/12/27 04:01:25;;;;;;;72.60;45.97;;;;;;;-0.69;100.00;93866.22;5068905;28;20045;-70
2022/12/27 04:03:51;;;;;;;75.43;52.55;;;;;;;-0.67;100.00;93835.81;5072160;28;20110;-70
2022/12/27 04:06:18;;;;;;;135.05;84.95;;;;;;;-0.78;100.00;93872.00;5068820;28;20554;-70
2022/12/27 04:36:08;;;;;;;71.60;48.28;;;;;;;-0.58;100.00;93874.63;5068463;28;20159;-71
2022/12/27 04:38:35;;;;;;;74.68;48.25;;;;;;;-0.52;100.00;93883.44;5068610;28;20389;-71
2022/12/27 04:55:16;;;;;;;79.80;48.13;;;;;;;-0.86;100.00;93899.56;5068251;28;20174;-71
2022/12/27 04:57:44;;;;;;;86.57;54.65;;;;;;;-0.90;100.00;93924.22;5068388;28;20094;-72
2022/12/27 05:02:56;;;;;;;69.80;48.08;;;;;;;-0.90;100.00;93913.31;5068343;28;20059;-72
2022/12/27 05:05:24;;;;;;;67.57;43.33;;;;;;;-1.08;100.00;93923.94;5068101;28;20036;-71
2022/12/27 05:16:06;;;;;;;66.25;41.65;;;;;;;-0.83;100.00;93912.72;5068187;28;20389;-72
2022/12/27 05:18:33;;;;;;;63.47;40.53;;;;;;;-0.81;100.00;93905.03;5067999;28;20079;-71
2022/12/27 05:21:02;;;;;;;63.47;40.15;;;;;;;-0.59;100.00;93906.66;5068216;28;20052;-72
2022/12/27 05:26:18;;;;;;;57.30;38.95;;;;;;;-0.41;100.00;93911.13;5068099;28;20055;-72
2022/12/27 05:28:47;;;;;;;53.13;36.28;;;;;;;-0.50;100.00;93912.69;5068234;28;20486;-71
2022/12/27 05:31:13;;;;;;;56.58;37.60;;;;;;;-0.44;100.00;93886.94;5068172;28;20457;-72
2022/12/27 05:33:40;;;;;;;55.58;39.38;;;;;;;-0.33;100.00;93907.97;5068159;28;20463;-71
2022/12/27 05:36:08;;;;;;;62.95;42.22;;;;;;;-0.29;100.00;93912.66;5068084;28;20057;-72
2022/12/27 05:38:35;;;;;;;58.92;40.42;;;;;;;-0.30;100.00;93907.72;5067961;28;20041;-71
2022/12/27 05:41:03;;;;;;;70.80;45.08;;;;;;;-0.23;100.00;93918.13;5068067;28;20044;-72
2022/12/27 05:43:30;;;;;;;57.80;40.75;;;;;;;-0.22;100.00;93912.16;5067600;28;20041;-71
2022/12/27 05:46:03;;;;;;;60.40;39.50;;;;;;;-0.23;100.00;93920.66;5067985;28;20098;-73
2022/12/27 05:48:30;;;;;;;55.70;38.10;;;;;;;-0.22;100.00;93907.09;5068108;28;20052;-73
2022/12/27 05:50:57;;;;;;;53.80;35.90;;;;;;;-0.41;100.00;93901.03;5068972;28;20086;-72
2022/12/27 05:53:23;;;;;;;50.90;34.13;;;;;;;-0.32;100.00;93909.56;5067658;28;20489;-72
2022/12/27 05:55:54;;;;;;;52.88;36.15;;;;;;;-0.37;100.00;93896.53;5067734;28;20357;-72
2022/12/27 05:58:21;;;;;;;49.90;35.65;;;;;;;-0.41;100.00;93899.28;5067525;28;20079;-72
2022/12/27 06:00:47;;;;;;;57.35;36.63;;;;;;;-0.31;100.00;93914.50;5067682;28;20466;-72
2022/12/27 06:03:16;;;;;;;54.65;36.83;;;;;;;-0.50;100.00;93914.38;5070063;28;20048;-73
2022/12/27 06:05:42;;;;;;;51.55;36.83;;;;;;;-0.60;100.00;93915.13;5071677;28;20048;-73
2022/12/27 06:08:10;;;;;;;56.60;40.05;;;;;;;-0.56;100.00;93903.06;5071220;28;20052;-74
2022/12/27 06:10:37;;;;;;;67.75;44.45;;;;;;;-0.51;100.00;93915.31;5071457;28;20036;-73
2022/12/27 06:13:04;;;;;;;58.83;41.38;;;;;;;-0.52;100.00;93898.59;5070910;28;20040;-73
2022/12/27 06:15:31;;;;;;;68.38;44.83;;;;;;;-0.37;100.00;93914.19;5071174;28;20101;-73
2022/12/27 06:18:02;;;;;;;61.88;40.17;;;;;;;-0.31;100.00;93911.97;5070855;28;20099;-71
2022/12/27 06:20:30;;;;;;;78.43;49.17;;;;;;;-0.28;100.00;93911.72;5071108;28;20049;-73
2022/12/27 06:22:59;;;;;;;70.47;45.33;;;;;;;-0.30;100.00;93915.28;5071203;28;20045;-72
2022/12/27 06:25:26;;;;;;;80.07;55.45;;;;;;;-0.27;100.00;93908.25;5070934;28;21531;-72
2022/12/27 06:27:53;;;;;;;75.97;52.38;;;;;;;-0.21;100.00;93921.31;5068778;28;20122;-72
2022/12/27 06:30:20;;;;;;;71.47;49.40;;;;;;;-0.22;100.00;93910.44;5069072;28;20098;-72
2022/12/27 06:32:46;;;;;;;73.18;49.40;;;;;;;-0.19;100.00;93907.63;5070332;28;20102;-71
2022/12/27 06:35:13;;;;;;;76.43;55.50;;;;;;;-0.20;100.00;93905.22;5070615;28;20504;-72
2022/12/27 06:37:41;;;;;;;75.97;51.28;;;;;;;-0.21;100.00;93929.69;5070752;28;20048;-73
2022/12/27 06:40:09;;;;;;;129.52;87.85;;;;;;;-0.14;100.00;93925.72;5070315;28;20500;-73
2022/12/27 06:42:36;;;;;;;103.10;70.68;;;;;;;-0.11;100.00;93929.72;5070677;28;20044;-73
2022/12/27 06:45:04;;;;;;;88.45;59.00;;;;;;;-0.14;100.00;93930.78;5070282;28;20078;-73
2022/12/27 06:47:31;;;;;;;132.02;83.22;;;;;;;-0.27;100.00;93925.16;5070250;28;20443;-73
2022/12/27 06:49:58;;;;;;;91.45;59.25;;;;;;;-0.25;100.00;93925.00;5070230;28;20109;-73
2022/12/27 06:52:25;;;;;;;81.00;53.00;;;;;;;-0.31;100.00;93924.59;5071596;28;20554;-72
2022/12/27 06:54:53;;;;;;;80.38;53.65;;;;;;;-0.28;100.00;93926.06;5070411;28;20048;-73
2022/12/27 06:57:20;;;;;;;87.70;57.92;;;;;;;-0.14;100.00;93929.97;5070438;28;21288;-73
2022/12/27 06:59:46;;;;;;;96.90;57.95;;;;;;;-0.11;100.00;93927.22;5070475;28;20594;-73
2022/12/27 07:02:13;;;;;;;104.70;61.28;;;;;;;-0.03;100.00;93924.06;5070346;28;20096;-73
2022/12/27 07:04:40;;;;;;;119.75;68.68;;;;;;;-0.05;100.00;93939.31;5069911;28;20672;-73
2022/12/27 07:07:06;;;;;;;72.32;46.83;;;;;;;-0.33;100.00;93931.50;5070048;28;20087;-73
2022/12/27 07:09:33;;;;;;;70.88;46.53;;;;;;;-0.30;100.00;93935.50;5070218;28;20037;-73
2022/12/27 07:12:01;;;;;;;68.60;42.75;;;;;;;-0.22;100.00;93928.09;5070039;28;20052;-73
2022/12/27 07:14:28;;;;;;;68.13;45.97;;;;;;;-0.34;100.00;93926.56;5069553;28;20489;-73
2022/12/27 07:16:55;;;;;;;65.65;46.78;;;;;;;-0.28;100.00;93929.38;5070062;28;20047;-73
2022/12/27 07:19:21;;;;;;;70.25;49.03;;;;;;;-0.19;100.00;93929.59;5069578;28;20045;-73
2022/12/27 07:21:48;;;;;;;103.80;64.32;;;;;;;-0.21;100.00;93931.41;5067555;28;20509;-72
2022/12/27 07:24:15;;;;;;;108.93;61.97;;;;;;;-0.11;100.00;93922.16;5068102;28;20045;-72
2022/12/27 07:26:41;;;;;;;61.40;41.90;;;;;;;-0.20;100.00;93925.44;5068480;28;20074;-72
2022/12/27 07:29:10;;;;;;;65.05;47.03;;;;;;;-0.08;100.00;93926.97;5069309;28;20048;-72
2022/12/27 07:31:37;;;;;;;66.80;46.30;;;;;;;0.08;100.00;93929.00;5069330;28;20048;-73
2022/12/27 07:34:04;;;;;;;61.03;41.40;;;;;;;0.17;100.00;93924.13;5069713;28;20090;-72
2022/12/27 07:36:34;;;;;;;55.47;38.97;;;;;;;0.33;100.00;93921.91;5069728;28;20049;-72
2022/12/27 07:39:01;;;;;;;78.72;52.92;;;;;;;0.44;100.00;93915.16;5069776;28;20049;-72
2022/12/27 07:41:27;;;;;;;70.78;49.13;;;;;;;0.48;100.00;93904.66;5069114;28;20045;-72
2022/12/27 07:43:54;;;;;;;68.35;47.55;;;;;;;0.71;100.00;93908.69;5069508;28;20040;-72
2022/12/27 07:46:24;;;;;;;64.95;46.90;;;;;;;0.78;100.00;93886.97;5069419;28;20059;-72
2022/12/27 07:48:53;;;;;;;63.45;43.50;;;;;;;1.02;100.00;93901.75;5069234;28;20097;-72
2022/12/27 07:51:19;;;;;;;57.50;39.80;;;;;;;1.16;100.00;93902.31;5073563;28;20045;-72
2022/12/27 07:53:48;;;;;;;57.58;41.67;;;;;;;1.33;100.00;93900.81;5071954;28;20044;-72
2022/12/27 07:56:17;;;;;;;70.85;45.70;;;;;;;1.48;100.00;93908.78;5072093;28;20052;-72
2022/12/27 07:58:46;;;;;;;75.65;46.30;;;;;;;1.59;100.00;93907.81;5069101;28;20048;-72
2022/12/27 08:01:14;;;;;;;61.47;35.90;;;;;;;1.73;100.00;93902.31;5069268;28;20052;-71
2022/12/27 08:03:43;;;;;;;51.08;35.40;;;;;;;1.62;100.00;93907.53;5068830;28;20102;-71
2022/12/27 08:06:20;;;;;;;54.10;35.38;;;;;;;1.57;100.00;93892.75;5068892;28;20053;-72
2022/12/27 08:08:47;;;;;;;51.20;35.30;;;;;;;1.73;100.00;93906.59;5069000;28;20032;-72
2022/12/27 08:11:14;;;;;;;60.53;40.28;;;;;;;1.72;100.00;93907.53;5069038;28;20090;-72
2022/12/27 08:13:40;;;;;;;54.67;35.70;;;;;;;1.82;100.00;93907.50;5068606;28;20053;-72
2022/12/27 08:16:10;;;;;;;54.40;34.42;;;;;;;1.96;100.00;93901.19;5070178;28;20098;-71
2022/12/27 08:18:37;;;;;;;56.03;35.53;;;;;;;2.08;100.00;93905.13;5089322;28;20090;-72
2022/12/27 08:21:05;;;;;;;51.30;32.95;;;;;;;2.14;100.00;93913.91;5089312;28;20545;-71
2022/12/27 08:23:32;;;;;;;66.18;42.97;;;;;;;2.01;100.00;93914.22;5081192;28;20044;-71
2022/12/27 08:25:59;;;;;;;58.13;36.55;;;;;;;1.89;100.00;93913.59;5081374;28;20048;-71
2022/12/27 08:28:27;;;;;;;52.33;35.67;;;;;;;1.95;100.00;93904.66;5089300;28;20048;-71
2022/12/27 08:30:53;;;;;;;62.28;37.22;;;;;;;1.97;100.00;93912.91;5082949;28;20046;-71
2022/12/27 08:33:20;;;;;;;54.70;36.08;;;;;;;2.04;100.00;93906.34;5082750;28;20094;-71
2022/12/27 08:35:47;;;;;;;57.30;36.10;;;;;;;2.12;100.00;93903.09;5083175;28;20090;-70
2022/12/27 08:38:15;;;;;;;66.07;38.95;;;;;;;2.35;100.00;93900.19;5081697;28;20106;-70
2022/12/27 08:40:44;;;;;;;72.88;42.50;;;;;;;2.59;100.00;93892.06;5075989;28;20044;-70
2022/12/27 08:43:11;;;;;;;57.75;34.85;;;;;;;2.69;100.00;93898.81;5068447;28;20466;-70
2022/12/27 08:45:39;;;;;;;42.55;30.27;;;;;;;2.75;100.00;93903.31;5068495;28;20036;-70
2022/12/27 08:48:06;;;;;;;45.55;31.75;;;;;;;2.88;100.00;93897.88;5068642;28;20049;-70
2022/12/27 08:50:33;;;;;;;44.13;29.77;;;;;;;2.98;100.00;93903.69;5085042;28;20048;-70
2022/12/27 08:53:02;;;;;;;44.85;29.67;;;;;;;2.93;100.00;93898.25;5089024;28;20097;-70
2022/12/27 08:55:30;;;;;;;38.28;27.75;;;;;;;2.91;100.00;93890.75;5088230;28;20066;-70
2022/12/27 08:57:58;;;;;;;44.95;29.42;;;;;;;2.85;100.00;93881.19;5089115;28;20052;-70
2022/12/27 09:00:25;;;;;;;37.88;23.98;;;;;;;3.09;100.00;93892.50;5088599;28;20097;-70
2022/12/27 09:02:53;;;;;;;39.78;25.33;;;;;;;3.20;100.00;93887.19;5088726;28;20044;-70
2022/12/27 09:05:20;;;;;;;49.63;30.75;;;;;;;3.33;100.00;93894.44;5089018;28;20454;-70
2022/12/27 09:07:48;;;;;;;51.17;28.42;;;;;;;3.38;100.00;93877.97;5088894;28;20047;-70
2022/12/27 09:10:15;;;;;;;45.22;28.55;;;;;;;3.65;100.00;93894.00;5088717;28;20507;-70
2022/12/27 09:12:44;;;;;;;42.08;25.38;;;;;;;3.77;100.00;93892.00;5088540;28;20093;-70
2022/12/27 09:15:11;;;;;;;41.38;23.98;;;;;;;3.82;100.00;93890.59;5088487;28;20504;-70
2022/12/27 09:17:38;;;;;;;47.50;26.75;;;;;;;4.00;100.00;93871.94;5088851;28;20040;-70
2022/12/27 09:20:06;;;;;;;40.30;25.23;;;;;;;4.16;100.00;93880.59;5088523;28;20089;-70
2022/12/27 09:22:33;;;;;;;40.63;28.02;;;;;;;4.22;100.00;93865.50;5089123;28;20480;-70
2022/12/27 09:25:00;;;;;;;43.42;29.70;;;;;;;4.46;100.00;93861.44;5088532;28;20488;-70
2022/12/27 09:27:27;;;;;;;41.97;24.90;;;;;;;4.54;100.00;93868.31;5088632;28;20056;-70
2022/12/27 09:29:55;;;;;;;38.33;23.05;;;;;;;4.63;100.00;93872.44;5088842;28;20044;-70
2022/12/27 09:32:26;;;;;;;40.72;25.65;;;;;;;4.67;100.00;93885.66;5088585;28;20508;-70
2022/12/27 09:34:52;;;;;;;37.33;24.27;;;;;;;4.66;100.00;93881.50;5088588;28;20051;-70
2022/12/27 09:37:19;;;;;;;53.38;35.83;;;;;;;4.88;100.00;93874.22;5089438;28;20044;-70
2022/12/27 09:39:46;;;;;;;51.97;37.25;;;;;;;4.99;100.00;93873.13;5092683;28;20125;-70
2022/12/27 09:42:25;;;;;;;46.45;29.98;;;;;;;5.05;100.00;93872.50;5092582;28;20093;-70
2022/12/27 09:44:59;;;;;;;39.95;27.08;;;;;;;5.02;100.00;93865.97;5092637;28;20052;-70
2022/12/27 09:47:31;;;;;;;39.95;24.67;;;;;;;5.20;100.00;93863.25;5092574;28;20360;-70
2022/12/27 09:50:02;;;;;;;39.00;27.08;;;;;;;5.18;100.00;93862.63;5092142;28;20084;-70
2022/12/27 09:52:33;;;;;;;42.40;28.17;;;;;;;5.18;100.00;93867.72;5091969;28;20086;-70
2022/12/27 09:55:05;;;;;;;51.65;31.70;;;;;;;5.11;100.00;93861.69;5092209;28;20088;-70
2022/12/27 09:57:37;;;;;;;49.55;31.15;;;;;;;5.19;100.00;93859.13;5092194;28;20052;-70
2022/12/27 10:00:13;;;;;;;48.10;29.35;;;;;;;5.30;100.00;93840.19;5091888;28;20056;-71
2022/12/27 10:02:40;;;;;;;;;;;;;;;5.58;100.00;93850.00;5087938;28;20036;-71
2022/12/27 10:05:22;;;;;;;50.47;30.77;;;;;;;5.64;100.00;93855.41;5081688;28;19928;-72
2022/12/27 10:08:09;;;;;;;47.13;28.88;;;;;;;5.74;100.00;93845.84;5090552;28;20140;-72
2022/12/27 10:10:44;;;;;;;40.47;26.33;;;;;;;5.84;100.00;93851.50;5088582;28;20054;-72
2022/12/27 10:13:26;;;;;;;40.00;24.43;;;;;;;5.95;100.00;93849.56;5091167;28;20131;-71
2022/12/27 10:16:06;;;;;;;35.00;23.35;;;;;;;6.14;100.00;93844.13;5087192;28;21768;-71
2022/12/27 10:18:44;;;;;;;33.08;20.65;;;;;;;6.19;100.00;93835.97;5090812;28;20473;-71
2022/12/27 10:21:19;;;;;;;33.50;20.23;;;;;;;6.51;100.00;93825.75;5090903;28;20070;-72
2022/12/27 10:23:53;;;;;;;34.30;20.02;;;;;;;6.61;100.00;93828.09;5091996;28;20067;-71
2022/12/27 10:26:20;;;;;;;32.88;18.20;;;;;;;6.71;100.00;93838.06;5083963;28;20044;-71
2022/12/27 10:28:51;;;;;;;33.83;18.77;;;;;;;6.82;100.00;93835.91;5090483;28;20562;-71
2022/12/27 10:31:22;;;;;;;31.30;19.52;;;;;;;6.85;100.00;93822.00;5091223;28;20048;-71
2022/12/27 10:33:50;;;;;;;35.10;20.63;;;;;;;7.04;100.00;93827.63;5074819;28;20044;-71
2022/12/27 10:36:20;;;;;;;37.45;19.73;;;;;;;7.17;100.00;93815.03;5077189;28;20413;-71
2022/12/27 10:38:47;;;;;;;33.90;19.70;;;;;;;7.35;100.00;93824.94;5090538;28;20451;-71
2022/12/27 10:41:25;;;;;;;28.83;18.92;;;;;;;7.40;100.00;93818.53;5090618;28;20401;-71
2022/12/27 10:43:54;;;;;;;29.65;19.20;;;;;;;7.44;100.00;93812.88;5090801;28;20048;-71
2022/12/27 10:46:24;;;;;;;31.27;18.08;;;;;;;7.55;100.00;93819.31;5090707;28;20048;-71
2022/12/27 10:48:57;;;;;;;35.30;17.80;;;;;;;7.57;100.00;93817.41;5090393;28;20048;-71
2022/12/27 10:51:25;;;;;;;33.28;17.75;;;;;;;7.68;100.00;93813.59;5090435;28;20098;-71
2022/12/27 10:54:00;;;;;;;33.83;19.48;;;;;;;7.80;100.00;93813.97;5090310;28;20044;-71
2022/12/27 10:56:28;;;;;;;29.10;18.48;;;;;;;7.92;100.00;93813.50;5090635;28;20627;-71
2022/12/27 10:59:04;;;;;;;33.20;19.65;;;;;;;8.04;100.00;93814.63;5090364;28;20048;-71
2022/12/27 11:01:33;;;;;;;38.30;21.20;;;;;;;8.36;100.00;93810.06;5089901;28;20496;-71
2022/12/27 11:04:11;;;;;;;34.00;19.45;;;;;;;8.47;100.00;93811.38;5090298;28;20040;-71
2022/12/27 11:06:38;;;;;;;35.72;20.20;;;;;;;8.63;100.00;93804.47;5089916;28;20097;-71
2022/12/27 11:09:29;;;;;;;38.58;20.17;;;;;;;8.84;100.00;93801.09;5090234;28;20040;-72
2022/12/27 11:12:16;;;;;;;36.40;19.25;;;;;;;8.95;100.00;93797.25;5089674;28;20044;-71
2022/12/27 11:14:54;;;;;;;37.75;18.48;;;;;;;9.09;100.00;93790.47;5089965;28;20075;-71
2022/12/27 11:17:25;;;;;;;41.65;18.65;;;;;;;9.14;100.00;93782.22;5089824;28;20066;-71
2022/12/27 11:19:53;;;;;;;38.40;19.88;;;;;;;9.24;100.00;93777.56;5089647;28;20059;-71
2022/12/27 11:22:20;;;;;;;47.67;20.90;;;;;;;9.40;100.00;93776.47;5090041;28;20097;-72
2022/12/27 11:24:50;;;;;;;45.55;21.10;;;;;;;9.47;100.00;93767.06;5089712;28;20097;-72
2022/12/27 11:27:24;;;;;;;54.50;21.98;;;;;;;9.42;100.00;93760.91;5090035;28;20048;-72
2022/12/27 11:29:51;;;;;;;42.53;21.50;;;;;;;9.41;100.00;93769.56;5082216;28;20794;-72
2022/12/27 11:32:23;;;;;;;56.92;22.98;;;;;;;9.34;100.00;93783.16;5087402;28;20048;-72
2022/12/27 11:34:53;;;;;;;54.00;24.60;;;;;;;9.17;100.00;93769.81;5089798;28;20389;-72
2022/12/27 11:37:22;;;;;;;39.58;20.45;;;;;;;9.22;100.00;93774.41;5071560;28;20036;-71
2022/12/27 11:39:51;;;;;;;38.97;20.35;;;;;;;9.15;100.00;93771.78;5069214;28;20052;-71
2022/12/27 11:42:25;;;;;;;36.30;19.48;;;;;;;9.19;100.00;93779.88;5075796;28;20047;-72
2022/12/27 11:45:03;;;;;;;35.20;19.80;;;;;;;9.13;100.00;93775.50;5090226;28;20052;-72
2022/12/27 11:47:39;;;;;;;44.65;20.42;;;;;;;9.17;100.00;93787.75;5090087;28;20077;-71
2022/12/27 11:50:27;;;;;;;27.52;15.73;;;;;;;9.04;100.00;93767.16;5090024;28;20048;-72
2022/12/27 11:53:11;;;;;;;24.65;14.20;;;;;;;9.14;100.00;93784.78;5090025;28;20043;-72
2022/12/27 11:56:06;;;;;;;22.10;12.05;;;;;;;9.17;100.00;93785.19;5089877;28;20101;-71
2022/12/27 11:58:54;;;;;;;21.77;11.50;;;;;;;9.33;100.00;93784.13;5084423;28;20495;-71
2022/12/27 12:01:45;;;;;;;19.88;10.27;;;;;;;9.35;100.00;93789.84;5089333;28;20113;-71
2022/12/27 12:04:51;;;;;;;26.23;11.52;;;;;;;9.54;100.00;93784.25;5078762;28;20109;-71
2022/12/27 12:07:36;;;;;;;21.60;10.90;;;;;;;9.43;100.00;93795.81;4990831;28;20498;-72
2022/12/27 12:10:17;;;;;;;15.23;10.32;;;;;;;9.41;100.00;93798.59;5087036;28;20040;-72
2022/12/27 12:13:09;;;;;;;18.80;11.35;;;;;;;9.55;100.00;93789.19;5089884;28;20097;-71
2022/12/27 12:16:08;;;;;;;18.35;9.88;;;;;;;9.40;100.00;93793.63;5078919;28;20060;-71
2022/12/27 12:19:01;;;;;;;19.80;11.60;;;;;;;9.56;100.00;93792.53;5089196;28;20097;-71
2022/12/27 12:21:31;;;;;;;22.45;11.90;;;;;;;9.45;100.00;93796.44;5078981;28;20396;-71
2022/12/27 12:24:40;;;;;;;20.02;11.35;;;;;;;9.43;100.00;93799.19;5089347;28;20101;-71
2022/12/27 12:27:26;;;;;;;21.77;13.18;;;;;;;9.49;100.00;93790.72;5048329;28;20056;-71
2022/12/27 12:30:33;;;;;;;22.48;12.88;;;;;;;9.50;100.00;93794.09;5076611;28;20048;-71
2022/12/27 12:33:17;;;;;;;21.65;13.05;;;;;;;9.64;100.00;93800.09;5086848;28;20044;-71
2022/12/27 12:35:57;;;;;;;21.17;13.00;;;;;;;9.59;100.00;93792.19;5089422;28;20109;-71
2022/12/27 12:38:30;;;;;;;17.40;10.75;;;;;;;9.74;100.00;93808.25;5087218;28;20044;-72
2022/12/27 12:41:46;;;;;;;17.88;10.50;;;;;;;9.86;100.00;93794.88;5088945;28;20457;-71
2022/12/27 12:44:57;;;;;;;17.95;10.95;;;;;;;10.03;100.00;93808.16;5015952;28;20531;-71
2022/12/27 12:47:41;;;;;;;16.55;9.75;;;;;;;10.05;100.00;93806.22;4980799;28;20050;-71
2022/12/27 12:50:23;;;;;;;21.77;11.27;;;;;;;10.12;100.00;93808.81;5086882;28;20055;-71
2022/12/27 12:53:13;;;;;;;17.48;9.60;;;;;;;10.22;100.00;93818.69;5088949;28;20097;-71
2022/12/27 12:55:54;;;;;;;21.27;11.85;;;;;;;10.16;100.00;93813.38;5089100;28;20048;-71
2022/12/27 12:58:40;;;;;;;21.52;12.23;;;;;;;10.04;100.00;93814.88;5089137;28;20044;-71
2022/12/27 13:01:25;;;;;;;19.80;12.93;;;;;;;10.09;100.00;93809.97;5088975;28;20107;-72
2022/12/27 13:04:04;;;;;;;23.40;11.85;;;;;;;10.18;100.00;93812.38;5088986;28;20043;-71
2022/12/27 13:06:55;;;;;;;23.02;13.85;;;;;;;10.31;100.00;93806.50;5088986;28;20419;-72
2022/12/27 13:09:37;;;;;;;21.75;13.40;;;;;;;10.32;100.00;93808.88;5089083;28;20044;-72